Time;durP1;ratioP1;P1;durP2;ratioP2;P2;SDS_P1;SDS_P2;PMS_P1;PMS_P2;Temp;Humidity;BMP_temperature;BMP_pressure;BME280_temperature;BME280_humidity;BME280_pressure;Samples;Min_cycle;Max_cycle;Signal;HPM_P1;HPM_P2
2023/05/31 00:00:00;;;;;;;;;;;16.30;99.90;;;;;;20913134;28;20430;-75
2023/05/31 00:10:01;;;;;;;;;;;16.00;99.90;;;;;;20912134;28;19935;-76
2023/05/31 00:20:02;;;;;;;;;;;16.10;99.90;;;;;;20911087;28;19924;-76
2023/05/31 00:30:03;;;;;;;;;;;16.20;99.90;;;;;;20934603;28;19912;-76
2023/05/31 00:40:05;;;;;;;;;;;16.30;99.90;;;;;;20991794;28;19967;-76
2023/05/31 00:50:06;;;;;;;;;;;16.50;99.90;;;;;;20980465;28;19966;-76
2023/05/31 01:00:08;;;;;;;;;;;16.30;99.90;;;;;;20908696;28;19959;-76
2023/05/31 01:10:08;;;;;;;;;;;16.10;99.90;;;;;;20894658;28;20338;-76
2023/05/31 01:20:11;;;;;;;;;;;16.00;99.90;;;;;;20907106;28;19923;-76
2023/05/31 01:30:12;;;;;;;;;;;15.80;99.90;;;;;;20889206;28;19935;-76
2023/05/31 01:40:14;;;;;;;;;;;15.80;99.90;;;;;;20888707;28;19921;-76
2023/05/31 01:50:16;;;;;;;;;;;15.60;99.90;;;;;;20888433;28;19956;-77
2023/05/31 02:00:17;;;;;;;;;;;15.50;99.90;;;;;;20920483;28;20337;-76
2023/05/31 02:10:20;;;;;;;;;;;15.40;99.90;;;;;;20903758;28;19920;-76
2023/05/31 02:20:20;;;;;;;;;;;15.30;99.90;;;;;;20902993;28;19917;-75
2023/05/31 02:30:21;;;;;;;;;;;15.20;99.90;;;;;;20902856;28;19912;-75
2023/05/31 02:40:22;;;;;;;;;;;15.10;99.90;;;;;;20919416;28;19924;-76
2023/05/31 02:50:22;;;;;;;;;;;15.00;99.90;;;;;;20919530;28;19935;-75
2023/05/31 03:00:29;;;;;;;;;;;15.10;99.90;;;;;;20900688;28;20398;-76
2023/05/31 03:10:30;;;;;;;;;;;15.00;99.90;;;;;;20898421;28;19944;-76
2023/05/31 03:20:32;;;;;;;;;;;15.00;99.90;;;;;;20890262;28;19921;-76
2023/05/31 03:30:33;;;;;;;;;;;14.90;99.90;;;;;;20897590;28;19927;-78
2023/05/31 03:40:36;;;;;;;;;;;14.90;99.90;;;;;;20895945;28;19916;-76
2023/05/31 03:50:39;;;;;;;;;;;14.90;99.90;;;;;;20893367;28;19952;-76
2023/05/31 04:00:41;;;;;;;;;;;14.80;99.90;;;;;;20910132;28;19951;-76
2023/05/31 04:10:42;;;;;;;;;;;14.70;99.90;;;;;;20909377;28;20349;-76
2023/05/31 04:20:43;;;;;;;;;;;14.70;99.90;;;;;;20890501;28;20002;-76
2023/05/31 04:30:44;;;;;;;;;;;14.60;99.90;;;;;;20890423;28;19920;-76
2023/05/31 04:40:45;;;;;;;;;;;14.70;99.90;;;;;;20889103;28;19916;-76
2023/05/31 04:50:49;;;;;;;;;;;14.80;99.90;;;;;;20882798;28;19970;-76
2023/05/31 05:00:49;;;;;;;;;;;14.90;99.90;;;;;;20887759;28;19927;-76
2023/05/31 05:10:57;;;;;;;;;;;15.20;99.90;;;;;;20886983;28;20371;-76
2023/05/31 05:20:58;;;;;;;;;;;15.50;99.90;;;;;;20886376;28;20051;-76
2023/05/31 05:31:03;;;;;;;;;;;15.60;99.90;;;;;;20886249;28;19919;-76
2023/05/31 05:41:10;;;;;;;;;;;15.80;99.90;;;;;;20869867;28;19917;-76
2023/05/31 05:51:12;;;;;;;;;;;16.20;99.90;;;;;;20885334;28;19917;-76
2023/05/31 06:01:18;;;;;;;;;;;16.60;99.90;;;;;;20884911;28;19962;-76
2023/05/31 06:11:20;;;;;;;;;;;16.60;99.90;;;;;;20884826;28;19927;-76
2023/05/31 06:21:21;;;;;;;;;;;17.20;99.90;;;;;;20884751;28;19925;-76
2023/05/31 06:31:22;;;;;;;;;;;17.70;99.90;;;;;;20870838;28;20291;-76
2023/05/31 06:41:22;;;;;;;;;;;18.20;99.90;;;;;;20876134;28;20011;-76
2023/05/31 06:51:23;;;;;;;;;;;18.60;99.90;;;;;;20898237;28;19913;-76
2023/05/31 07:01:47;;;;;;;;;;;18.80;99.90;;;;;;20915160;28;19940;-76
2023/05/31 07:11:48;;;;;;;;;;;19.40;99.90;;;;;;20914546;28;19917;-76
2023/05/31 07:21:49;;;;;;;;;;;20.00;99.90;;;;;;20895981;28;19944;-76
2023/05/31 07:31:50;;;;;;;;;;;20.00;99.30;;;;;;20895442;28;20272;-76
2023/05/31 07:41:51;;;;;;;;;;;20.50;98.10;;;;;;20911986;28;19917;-76
2023/05/31 07:51:52;;;;;;;;;;;21.00;97.40;;;;;;20911170;28;19912;-77
2023/05/31 08:01:52;;;;;;;;;;;21.60;95.60;;;;;;20911314;28;19921;-77
2023/05/31 08:11:53;;;;;;;;;;;21.50;95.40;;;;;;20909968;28;19976;-76
2023/05/31 08:21:54;;;;;;;;;;;21.90;95.30;;;;;;20911927;28;19965;-77
2023/05/31 08:31:55;;;;;;;;;;;22.40;94.80;;;;;;20902013;28;19912;-77
2023/05/31 08:42:10;;;;;;;;;;;22.70;94.30;;;;;;20902134;28;19924;-77
2023/05/31 08:52:11;;;;;;;;;;;23.10;93.20;;;;;;20892167;28;20323;-77
2023/05/31 09:02:12;;;;;;;;;;;23.30;93.10;;;;;;20899388;28;19978;-77
2023/05/31 09:12:14;;;;;;;;;;;23.20;92.60;;;;;;20927225;28;19965;-77
2023/05/31 09:22:15;;;;;;;;;;;23.40;92.90;;;;;;20992579;28;19956;-77
2023/05/31 09:32:15;;;;;;;;;;;23.70;91.90;;;;;;20952193;28;19967;-77
2023/05/31 09:42:16;;;;;;;;;;;24.20;92.30;;;;;;20904568;28;20381;-77
2023/05/31 09:52:19;;;;;;;;;;;24.10;91.70;;;;;;20914944;28;19924;-77
2023/05/31 10:02:20;;;;;;;;;;;24.70;91.50;;;;;;20916335;28;20324;-77
2023/05/31 10:12:25;;;;;;;;;;;25.20;90.90;;;;;;20934322;28;20298;-76
2023/05/31 10:22:29;;;;;;;;;;;25.10;90.30;;;;;;20916982;28;19916;-75
2023/05/31 10:32:32;;;;;;;;;;;24.20;91.80;;;;;;20902886;28;19971;-77
2023/05/31 10:42:51;;;;;;;;;;;25.40;90.10;;;;;;20987366;28;20335;-77
2023/05/31 10:52:52;;;;;;;;;;;26.20;89.30;;;;;;20900317;28;20019;-77
2023/05/31 11:02:56;;;;;;;;;;;25.60;89.90;;;;;;20965457;28;20023;-77
2023/05/31 11:12:57;;;;;;;;;;;27.00;89.30;;;;;;20910551;28;19912;-76
2023/05/31 11:23:16;;;;;;;;;;;26.40;89.50;;;;;;20912087;28;19917;-77
2023/05/31 11:33:18;;;;;;;;;;;26.60;90.70;;;;;;20909118;28;19935;-77
2023/05/31 11:43:23;;;;;;;;;;;27.30;88.70;;;;;;20900692;28;20007;-76
2023/05/31 11:53:26;;;;;;;;;;;27.50;88.50;;;;;;20888519;28;19924;-77
2023/05/31 12:03:27;;;;;;;;;;;26.70;89.50;;;;;;20915559;28;20394;-76
2023/05/31 12:13:27;;;;;;;;;;;27.60;88.20;;;;;;20913923;28;19938;-77
2023/05/31 12:23:30;;;;;;;;;;;28.10;84.30;;;;;;20911103;28;20008;-77
2023/05/31 12:33:34;;;;;;;;;;;28.40;83.50;;;;;;20905952;28;20260;-76
2023/05/31 12:43:34;;;;;;;;;;;28.40;82.00;;;;;;20894634;28;19921;-76
2023/05/31 12:53:38;;;;;;;;;;;28.20;84.60;;;;;;20909009;28;19921;-76
2023/05/31 13:03:38;;;;;;;;;;;28.00;85.00;;;;;;20916513;28;19913;-76
2023/05/31 13:13:39;;;;;;;;;;;28.30;82.90;;;;;;20924033;28;19917;-77
2023/05/31 13:23:42;;;;;;;;;;;28.50;85.10;;;;;;20945063;28;21689;-77
2023/05/31 13:33:42;;;;;;;;;;;28.50;84.00;;;;;;20889391;28;20442;-76
2023/05/31 13:43:43;;;;;;;;;;;28.40;79.00;;;;;;20902151;28;19971;-77
2023/05/31 13:53:44;;;;;;;;;;;28.30;83.60;;;;;;20924366;28;19975;-76
2023/05/31 14:03:46;;;;;;;;;;;27.70;83.00;;;;;;20918238;28;19956;-76
2023/05/31 14:13:48;;;;;;;;;;;28.40;80.90;;;;;;20924618;28;19920;-77
2023/05/31 14:23:48;;;;;;;;;;;28.70;80.70;;;;;;20913859;28;20217;-76
2023/05/31 14:33:49;;;;;;;;;;;27.70;82.80;;;;;;20935629;28;19921;-76
2023/05/31 14:43:50;;;;;;;;;;;28.00;81.40;;;;;;20916589;28;19917;-77
2023/05/31 14:53:50;;;;;;;;;;;27.40;81.10;;;;;;20929496;28;19920;-77
2023/05/31 15:03:51;;;;;;;;;;;27.70;78.80;;;;;;20972824;28;20290;-76
2023/05/31 15:13:52;;;;;;;;;;;27.40;79.90;;;;;;20942610;28;19917;-76
2023/05/31 15:23:52;;;;;;;;;;;27.40;79.80;;;;;;20914076;28;20368;-76
2023/05/31 15:33:53;;;;;;;;;;;26.40;80.70;;;;;;20961581;28;19917;-76
2023/05/31 15:43:54;;;;;;;;;;;26.70;81.40;;;;;;20920112;28;19991;-73
2023/05/31 15:53:55;;;;;;;;;;;26.70;79.30;;;;;;20891269;28;19991;-76
2023/05/31 16:03:55;;;;;;;;;;;26.40;80.30;;;;;;20948111;28;19916;-76
2023/05/31 16:13:56;;;;;;;;;;;26.10;81.20;;;;;;20937613;28;20390;-76
2023/05/31 16:23:57;;;;;;;;;;;25.50;81.50;;;;;;20991779;28;19919;-76
2023/05/31 16:33:58;;;;;;;;;;;25.40;82.10;;;;;;20927156;28;19961;-75
2023/05/31 16:43:58;;;;;;;;;;;24.80;82.20;;;;;;20990266;28;20386;-76
2023/05/31 16:53:59;;;;;;;;;;;24.90;82.60;;;;;;20938839;28;19916;-76
2023/05/31 17:04:00;;;;;;;;;;;24.90;84.40;;;;;;20985430;28;19919;-76
2023/05/31 17:14:00;;;;;;;;;;;24.60;82.40;;;;;;20988656;28;19923;-76
2023/05/31 17:24:01;;;;;;;;;;;24.70;82.30;;;;;;20853294;28;20406;-77
2023/05/31 17:34:02;;;;;;;;;;;24.40;84.10;;;;;;20875201;28;19979;-76
2023/05/31 17:44:02;;;;;;;;;;;24.00;82.00;;;;;;20880921;28;19963;-76
2023/05/31 17:54:03;;;;;;;;;;;24.10;83.20;;;;;;20903990;28;19943;-77
2023/05/31 18:04:04;;;;;;;;;;;24.70;81.60;;;;;;20881250;28;19944;-77
2023/05/31 18:14:04;;;;;;;;;;;24.80;80.30;;;;;;20864338;28;19921;-77
2023/05/31 18:24:05;;;;;;;;;;;24.40;80.60;;;;;;20858037;28;19940;-76
2023/05/31 18:34:06;;;;;;;;;;;24.20;80.70;;;;;;20871068;28;19923;-76
2023/05/31 18:44:08;;;;;;;;;;;22.90;84.30;;;;;;20874132;28;19921;-76
2023/05/31 18:54:09;;;;;;;;;;;22.10;85.80;;;;;;20865784;28;19940;-76
2023/05/31 19:04:10;;;;;;;;;;;21.80;86.90;;;;;;20859881;28;19913;-76
2023/05/31 19:14:11;;;;;;;;;;;21.50;88.10;;;;;;20879140;28;19917;-76
2023/05/31 19:24:11;;;;;;;;;;;21.20;89.60;;;;;;20874420;28;19919;-76
2023/05/31 19:34:12;;;;;;;;;;;21.00;90.50;;;;;;20860258;28;20382;-76
2023/05/31 19:44:13;;;;;;;;;;;20.60;91.70;;;;;;20892404;28;19917;-76
2023/05/31 19:54:14;;;;;;;;;;;19.70;93.50;;;;;;20894828;28;20337;-77
2023/05/31 20:04:14;;;;;;;;;;;19.70;92.70;;;;;;20914046;28;19919;-76
2023/05/31 20:14:15;;;;;;;;;;;19.80;92.10;;;;;;20881754;28;19920;-76
2023/05/31 20:24:16;;;;;;;;;;;19.40;92.70;;;;;;20859843;28;19921;-76
2023/05/31 20:34:16;;;;;;;;;;;18.30;94.80;;;;;;20865483;28;19963;-76
2023/05/31 20:44:17;;;;;;;;;;;18.00;95.50;;;;;;20909694;28;19974;-76
2023/05/31 20:54:18;;;;;;;;;;;18.10;95.80;;;;;;20852762;28;19924;-76
2023/05/31 21:04:18;;;;;;;;;;;18.20;95.30;;;;;;20826156;28;19921;-76
2023/05/31 21:14:19;;;;;;;;;;;18.10;95.70;;;;;;20826437;28;19917;-76
2023/05/31 21:24:20;;;;;;;;;;;18.00;96.10;;;;;;20849735;28;19967;-76
2023/05/31 21:34:20;;;;;;;;;;;17.90;96.50;;;;;;20889847;28;19927;-76
2023/05/31 21:44:21;;;;;;;;;;;18.00;96.20;;;;;;20907396;28;20395;-76
2023/05/31 21:54:22;;;;;;;;;;;17.70;96.70;;;;;;20831184;28;19917;-75
2023/05/31 22:04:22;;;;;;;;;;;17.70;96.90;;;;;;20824268;28;19920;-77
2023/05/31 22:14:23;;;;;;;;;;;17.60;97.20;;;;;;20833521;28;19917;-77
2023/05/31 22:24:24;;;;;;;;;;;17.60;97.40;;;;;;20839384;28;19917;-76
2023/05/31 22:34:26;;;;;;;;;;;17.60;97.60;;;;;;20857269;28;20002;-75
2023/05/31 22:44:27;;;;;;;;;;;17.50;98.10;;;;;;20836790;28;20010;-76
2023/05/31 22:54:28;;;;;;;;;;;17.50;98.40;;;;;;20838742;28;19917;-76
2023/05/31 23:04:28;;;;;;;;;;;17.30;99.30;;;;;;20836679;28;19982;-76
2023/05/31 23:14:29;;;;;;;;;;;17.10;99.90;;;;;;20835101;28;19917;-77
2023/05/31 23:24:30;;;;;;;;;;;17.00;99.90;;;;;;20850373;28;19975;-76
2023/05/31 23:34:30;;;;;;;;;;;16.90;99.90;;;;;;20844082;28;19916;-76
2023/05/31 23:44:31;;;;;;;;;;;16.80;99.90;;;;;;20915595;28;20019;-76
2023/05/31 23:54:32;;;;;;;;;;;16.70;99.90;;;;;;20866284;28;20019;-76
